EDVK Airport Information

Runway Information
Runway 04 Length 4921 ft width 98 ft
Elevation 898 ft Threshold ft Heading 41
Runway 22 Length 4921 ft Width 98 ft
Elevation 872 ft Threshold ft Heading 221
Runway 04L Length 2297 ft width 98 ft
Elevation ft Threshold ft Heading 41
Runway 22R Length 2297 ft Width 98 ft
Elevation ft Threshold ft Heading 221
Runway 09 Length 8202 ft width 147 ft
Elevation 861 ft Threshold ft Heading 93
Runway 27 Length 8202 ft Width 147 ft
Elevation 803 ft Threshold ft Heading 273
Airport Frequencies
Type INFO Name BREMEN INF Frequency 119.825 MHZ
Type RDR Name BREMEN RAD Frequency 123.925 MHZ
Type TWR Name TWR Frequency 118.1 MHZ
Airport Navaids
Type NDB Name Kassel Frequency 349 KHZ
Airport Weather Information & NOTAM
ADDS - METARS form results

(1205 UTC 06 February 2023)
Data provider http://aviationweather.gov/metar/data/
 
METAR text: EDVK 061150Z 32007KT 280V020 9999 FEW015 03/M01 Q1038
Conditions at: EDVK (KASSEL/CALDEN , DE) observed 1150 UTC 06 February 2023
Temperature: 3.0°C (37°F)
Dewpoint: -1.0°C (30°F) [RH = 75%]
Pressure (altimeter): 30.65 inches Hg (1038.0 mb)
Winds: from the NW (320 degrees) at 8 MPH (7 knots; 3.6 m/s)
Visibility: 6 or more miles (10+ km)
Ceiling: at least 12,000 feet AGL
Clouds: few clouds at 1500 feet AGL
Weather: no significant weather observed at this time

METAR text: EDVK 061120Z 31006KT 270V350 9999 SCT014 03/M00 Q1038
Conditions at: EDVK (KASSEL/CALDEN , DE) observed 1120 UTC 06 February 2023
Temperature: 3.0°C (37°F)
Dewpoint: 0.0°C (32°F) [RH = 81%]
Pressure (altimeter): 30.65 inches Hg (1038.0 mb)
Winds: from the NW (310 degrees) at 7 MPH (6 knots; 3.1 m/s)
Visibility: 6 or more miles (10+ km)
Ceiling: at least 12,000 feet AGL
Clouds: scattered clouds at 1400 feet AGL
Weather: no significant weather observed at this time

Forecast for: EDVK (KASSEL/CALDEN , DE)
Text: TAF EDVK 061100Z 0612/0621 35006KT 9999 BKN010
Forecast period: 1200 to 2100 UTC 06 February 2023
Forecast type: FROM: standard forecast or significant change
Winds: from the N (350 degrees) at 7 MPH (6 knots; 3.1 m/s)
Visibility: 6 or more miles (10+ km)
Ceiling: 1000 feet AGL
Clouds: broken clouds at 1000 feet AGL
Weather: no significant weather forecast for this period
Text: BECMG 0612/0614 BKN020
Forecast period: 1200 to 2100 UTC 06 February 2023
Forecast type: BECOMING: Conditions expected to become as follows by 1400 UTC 06 February 2023
Winds: from the N (350 degrees) at 7 MPH (6 knots; 3.1 m/s)
Visibility: 6 or more miles (10+ km)
Ceiling: 2000 feet AGL
Clouds: broken clouds at 2000 feet AGL
Weather: no significant weather forecast for this period